sensor_id;sensor_type;location;lat;lon;timestamp;P1;durP1;ratioP1;P2;durP2;ratioP2
15256;SDS011;7731;50.720;6.912;2023-08-20T00:01:43;16.77;;;15.07;;
15256;SDS011;7731;50.720;6.912;2023-08-20T00:04:21;16.98;;;15.27;;
15256;SDS011;7731;50.720;6.912;2023-08-20T00:06:55;16.10;;;14.70;;
15256;SDS011;7731;50.720;6.912;2023-08-20T00:09:26;15.60;;;14.05;;
15256;SDS011;7731;50.720;6.912;2023-08-20T00:12:00;14.60;;;13.20;;
15256;SDS011;7731;50.720;6.912;2023-08-20T00:14:56;14.32;;;13.00;;
15256;SDS011;7731;50.720;6.912;2023-08-20T00:17:32;14.30;;;13.07;;
15256;SDS011;7731;50.720;6.912;2023-08-20T00:20:05;14.23;;;12.93;;
15256;SDS011;7731;50.720;6.912;2023-08-20T00:22:39;14.57;;;13.40;;
15256;SDS011;7731;50.720;6.912;2023-08-20T00:25:12;14.15;;;12.73;;
15256;SDS011;7731;50.720;6.912;2023-08-20T00:27:47;14.45;;;13.05;;
15256;SDS011;7731;50.720;6.912;2023-08-20T00:30:20;14.90;;;13.02;;
15256;SDS011;7731;50.720;6.912;2023-08-20T00:32:51;14.75;;;13.25;;
15256;SDS011;7731;50.720;6.912;2023-08-20T00:35:22;13.90;;;12.57;;
15256;SDS011;7731;50.720;6.912;2023-08-20T00:37:53;14.15;;;12.95;;
15256;SDS011;7731;50.720;6.912;2023-08-20T00:40:23;14.13;;;12.82;;
15256;SDS011;7731;50.720;6.912;2023-08-20T00:42:56;15.10;;;13.82;;
15256;SDS011;7731;50.720;6.912;2023-08-20T00:45:29;15.25;;;13.75;;
15256;SDS011;7731;50.720;6.912;2023-08-20T00:48:00;14.52;;;13.23;;
15256;SDS011;7731;50.720;6.912;2023-08-20T00:50:31;16.55;;;14.85;;
15256;SDS011;7731;50.720;6.912;2023-08-20T00:53:02;16.20;;;14.80;;
15256;SDS011;7731;50.720;6.912;2023-08-20T00:55:33;15.73;;;14.23;;
15256;SDS011;7731;50.720;6.912;2023-08-20T00:58:05;18.25;;;14.73;;
15256;SDS011;7731;50.720;6.912;2023-08-20T01:03:26;15.48;;;13.98;;
15256;SDS011;7731;50.720;6.912;2023-08-20T01:05:58;16.83;;;15.27;;
15256;SDS011;7731;50.720;6.912;2023-08-20T01:08:42;16.00;;;14.30;;
15256;SDS011;7731;50.720;6.912;2023-08-20T01:11:21;16.25;;;14.85;;
15256;SDS011;7731;50.720;6.912;2023-08-20T01:14:03;14.90;;;13.60;;
15256;SDS011;7731;50.720;6.912;2023-08-20T01:16:49;16.27;;;14.65;;
15256;SDS011;7731;50.720;6.912;2023-08-20T01:19:31;16.42;;;14.38;;
15256;SDS011;7731;50.720;6.912;2023-08-20T01:25:30;17.52;;;15.77;;
15256;SDS011;7731;50.720;6.912;2023-08-20T01:28:28;18.00;;;16.40;;
15256;SDS011;7731;50.720;6.912;2023-08-20T01:31:01;18.70;;;16.95;;
15256;SDS011;7731;50.720;6.912;2023-08-20T01:33:33;17.33;;;15.63;;
15256;SDS011;7731;50.720;6.912;2023-08-20T01:36:06;17.52;;;15.82;;
15256;SDS011;7731;50.720;6.912;2023-08-20T01:38:38;18.17;;;16.52;;
15256;SDS011;7731;50.720;6.912;2023-08-20T01:41:08;17.40;;;15.88;;
15256;SDS011;7731;50.720;6.912;2023-08-20T01:43:41;17.42;;;15.93;;
15256;SDS011;7731;50.720;6.912;2023-08-20T01:46:15;16.92;;;15.43;;
15256;SDS011;7731;50.720;6.912;2023-08-20T01:48:45;16.77;;;15.23;;
15256;SDS011;7731;50.720;6.912;2023-08-20T01:51:15;17.65;;;16.02;;
15256;SDS011;7731;50.720;6.912;2023-08-20T01:53:48;16.60;;;14.90;;
15256;SDS011;7731;50.720;6.912;2023-08-20T01:56:18;16.90;;;15.20;;
15256;SDS011;7731;50.720;6.912;2023-08-20T01:58:58;16.33;;;14.73;;
15256;SDS011;7731;50.720;6.912;2023-08-20T02:01:29;19.85;;;14.07;;
15256;SDS011;7731;50.720;6.912;2023-08-20T02:03:59;15.48;;;13.88;;
15256;SDS011;7731;50.720;6.912;2023-08-20T02:06:30;15.18;;;13.65;;
15256;SDS011;7731;50.720;6.912;2023-08-20T02:09:00;14.88;;;13.57;;
15256;SDS011;7731;50.720;6.912;2023-08-20T02:11:31;16.00;;;14.50;;
15256;SDS011;7731;50.720;6.912;2023-08-20T02:14:07;15.00;;;13.30;;
15256;SDS011;7731;50.720;6.912;2023-08-20T02:16:38;14.18;;;12.98;;
15256;SDS011;7731;50.720;6.912;2023-08-20T02:19:12;15.13;;;13.65;;
15256;SDS011;7731;50.720;6.912;2023-08-20T02:21:42;15.55;;;14.02;;
15256;SDS011;7731;50.720;6.912;2023-08-20T02:24:12;15.60;;;14.23;;
15256;SDS011;7731;50.720;6.912;2023-08-20T02:26:43;15.00;;;13.50;;
15256;SDS011;7731;50.720;6.912;2023-08-20T02:29:15;14.07;;;12.77;;
15256;SDS011;7731;50.720;6.912;2023-08-20T02:31:46;13.75;;;12.38;;
15256;SDS011;7731;50.720;6.912;2023-08-20T02:34:16;15.68;;;13.52;;
15256;SDS011;7731;50.720;6.912;2023-08-20T02:36:47;15.32;;;13.77;;
15256;SDS011;7731;50.720;6.912;2023-08-20T02:39:17;15.80;;;14.20;;
15256;SDS011;7731;50.720;6.912;2023-08-20T02:41:51;15.07;;;13.65;;
15256;SDS011;7731;50.720;6.912;2023-08-20T02:44:24;14.38;;;13.10;;
15256;SDS011;7731;50.720;6.912;2023-08-20T02:46:54;13.68;;;12.50;;
15256;SDS011;7731;50.720;6.912;2023-08-20T02:49:25;13.85;;;12.65;;
15256;SDS011;7731;50.720;6.912;2023-08-20T02:52:01;15.35;;;12.98;;
15256;SDS011;7731;50.720;6.912;2023-08-20T02:54:32;14.80;;;12.65;;
15256;SDS011;7731;50.720;6.912;2023-08-20T02:57:02;14.20;;;12.85;;
15256;SDS011;7731;50.720;6.912;2023-08-20T02:59:35;12.77;;;11.68;;
15256;SDS011;7731;50.720;6.912;2023-08-20T03:02:12;13.73;;;12.40;;
15256;SDS011;7731;50.720;6.912;2023-08-20T03:04:42;13.57;;;12.43;;
15256;SDS011;7731;50.720;6.912;2023-08-20T03:07:15;14.90;;;12.70;;
15256;SDS011;7731;50.720;6.912;2023-08-20T03:09:45;14.68;;;13.15;;
15256;SDS011;7731;50.720;6.912;2023-08-20T03:12:15;14.20;;;12.90;;
15256;SDS011;7731;50.720;6.912;2023-08-20T03:14:48;13.38;;;12.07;;
15256;SDS011;7731;50.720;6.912;2023-08-20T03:17:25;14.50;;;12.93;;
15256;SDS011;7731;50.720;6.912;2023-08-20T03:19:58;13.95;;;12.65;;
15256;SDS011;7731;50.720;6.912;2023-08-20T03:22:32;14.02;;;12.55;;
15256;SDS011;7731;50.720;6.912;2023-08-20T03:25:14;12.80;;;11.70;;
15256;SDS011;7731;50.720;6.912;2023-08-20T03:27:45;13.80;;;12.40;;
15256;SDS011;7731;50.720;6.912;2023-08-20T03:30:20;13.45;;;12.18;;
15256;SDS011;7731;50.720;6.912;2023-08-20T03:32:54;15.57;;;12.65;;
15256;SDS011;7731;50.720;6.912;2023-08-20T03:35:24;13.15;;;11.75;;
15256;SDS011;7731;50.720;6.912;2023-08-20T03:37:55;15.13;;;13.57;;
15256;SDS011;7731;50.720;6.912;2023-08-20T03:40:25;14.52;;;13.23;;
15256;SDS011;7731;50.720;6.912;2023-08-20T03:42:57;14.98;;;13.57;;
15256;SDS011;7731;50.720;6.912;2023-08-20T03:45:35;15.02;;;13.52;;
15256;SDS011;7731;50.720;6.912;2023-08-20T03:48:08;14.93;;;13.60;;
15256;SDS011;7731;50.720;6.912;2023-08-20T03:50:38;15.40;;;13.90;;
15256;SDS011;7731;50.720;6.912;2023-08-20T03:53:12;15.20;;;13.70;;
15256;SDS011;7731;50.720;6.912;2023-08-20T03:55:47;14.10;;;12.70;;
15256;SDS011;7731;50.720;6.912;2023-08-20T03:58:18;14.45;;;12.77;;
15256;SDS011;7731;50.720;6.912;2023-08-20T04:00:50;13.95;;;12.75;;
15256;SDS011;7731;50.720;6.912;2023-08-20T04:03:21;12.52;;;11.43;;
15256;SDS011;7731;50.720;6.912;2023-08-20T04:05:51;13.38;;;12.18;;
15256;SDS011;7731;50.720;6.912;2023-08-20T04:08:22;13.05;;;11.35;;
15256;SDS011;7731;50.720;6.912;2023-08-20T04:10:52;13.48;;;12.13;;
15256;SDS011;7731;50.720;6.912;2023-08-20T04:13:22;12.85;;;11.65;;
15256;SDS011;7731;50.720;6.912;2023-08-20T04:15:58;14.25;;;12.80;;
15256;SDS011;7731;50.720;6.912;2023-08-20T04:21:28;13.77;;;12.48;;
15256;SDS011;7731;50.720;6.912;2023-08-20T04:24:01;14.15;;;12.68;;
15256;SDS011;7731;50.720;6.912;2023-08-20T04:26:32;14.00;;;12.57;;
15256;SDS011;7731;50.720;6.912;2023-08-20T04:29:05;14.98;;;13.57;;
15256;SDS011;7731;50.720;6.912;2023-08-20T04:31:38;13.98;;;12.63;;
15256;SDS011;7731;50.720;6.912;2023-08-20T04:34:11;13.85;;;12.45;;
15256;SDS011;7731;50.720;6.912;2023-08-20T04:36:41;13.63;;;12.43;;
15256;SDS011;7731;50.720;6.912;2023-08-20T04:39:11;13.27;;;11.98;;
15256;SDS011;7731;50.720;6.912;2023-08-20T04:41:42;13.90;;;12.23;;
15256;SDS011;7731;50.720;6.912;2023-08-20T04:44:12;13.38;;;12.07;;
15256;SDS011;7731;50.720;6.912;2023-08-20T04:47:04;13.02;;;11.77;;
15256;SDS011;7731;50.720;6.912;2023-08-20T04:49:34;12.93;;;11.73;;
15256;SDS011;7731;50.720;6.912;2023-08-20T04:52:07;12.93;;;11.73;;
15256;SDS011;7731;50.720;6.912;2023-08-20T04:54:38;12.95;;;11.18;;
15256;SDS011;7731;50.720;6.912;2023-08-20T04:57:08;12.10;;;11.00;;
15256;SDS011;7731;50.720;6.912;2023-08-20T04:59:47;11.88;;;10.82;;
15256;SDS011;7731;50.720;6.912;2023-08-20T05:02:29;11.00;;;10.10;;
15256;SDS011;7731;50.720;6.912;2023-08-20T05:05:01;11.35;;;9.95;;
15256;SDS011;7731;50.720;6.912;2023-08-20T05:07:31;10.57;;;9.60;;
15256;SDS011;7731;50.720;6.912;2023-08-20T05:10:02;12.05;;;10.88;;
15256;SDS011;7731;50.720;6.912;2023-08-20T05:12:38;11.40;;;10.25;;
15256;SDS011;7731;50.720;6.912;2023-08-20T05:15:09;10.85;;;9.85;;
15256;SDS011;7731;50.720;6.912;2023-08-20T05:17:44;11.73;;;10.63;;
15256;SDS011;7731;50.720;6.912;2023-08-20T05:20:14;11.57;;;10.48;;
15256;SDS011;7731;50.720;6.912;2023-08-20T05:22:45;11.40;;;10.25;;
15256;SDS011;7731;50.720;6.912;2023-08-20T05:25:18;11.00;;;10.00;;
15256;SDS011;7731;50.720;6.912;2023-08-20T05:27:51;10.60;;;9.60;;
15256;SDS011;7731;50.720;6.912;2023-08-20T05:30:21;11.57;;;10.55;;
15256;SDS011;7731;50.720;6.912;2023-08-20T05:32:54;11.77;;;10.60;;
15256;SDS011;7731;50.720;6.912;2023-08-20T05:35:24;13.27;;;11.00;;
15256;SDS011;7731;50.720;6.912;2023-08-20T05:38:05;12.43;;;11.13;;
15256;SDS011;7731;50.720;6.912;2023-08-20T05:40:36;11.93;;;10.77;;
15256;SDS011;7731;50.720;6.912;2023-08-20T05:43:06;11.75;;;10.65;;
15256;SDS011;7731;50.720;6.912;2023-08-20T05:45:36;12.27;;;11.20;;
15256;SDS011;7731;50.720;6.912;2023-08-20T05:48:15;13.10;;;11.55;;
15256;SDS011;7731;50.720;6.912;2023-08-20T05:50:46;12.20;;;11.00;;
15256;SDS011;7731;50.720;6.912;2023-08-20T05:53:16;14.52;;;10.43;;
15256;SDS011;7731;50.720;6.912;2023-08-20T05:55:46;11.57;;;10.48;;
15256;SDS011;7731;50.720;6.912;2023-08-20T05:58:17;10.90;;;9.18;;
15256;SDS011;7731;50.720;6.912;2023-08-20T06:00:47;12.07;;;9.93;;
15256;SDS011;7731;50.720;6.912;2023-08-20T06:03:20;11.07;;;9.95;;
15256;SDS011;7731;50.720;6.912;2023-08-20T06:06:02;10.07;;;8.73;;
15256;SDS011;7731;50.720;6.912;2023-08-20T06:08:35;10.13;;;8.55;;
15256;SDS011;7731;50.720;6.912;2023-08-20T06:11:05;10.15;;;8.38;;
15256;SDS011;7731;50.720;6.912;2023-08-20T06:13:43;13.68;;;9.52;;
15256;SDS011;7731;50.720;6.912;2023-08-20T06:16:15;10.80;;;9.57;;
15256;SDS011;7731;50.720;6.912;2023-08-20T06:18:48;9.38;;;8.02;;
15256;SDS011;7731;50.720;6.912;2023-08-20T06:21:22;9.15;;;7.13;;
15256;SDS011;7731;50.720;6.912;2023-08-20T06:24:00;12.18;;;8.15;;
15256;SDS011;7731;50.720;6.912;2023-08-20T06:26:30;11.93;;;8.95;;
15256;SDS011;7731;50.720;6.912;2023-08-20T06:29:01;9.48;;;7.90;;
15256;SDS011;7731;50.720;6.912;2023-08-20T06:31:34;9.70;;;8.02;;
15256;SDS011;7731;50.720;6.912;2023-08-20T06:34:07;10.05;;;7.85;;
15256;SDS011;7731;50.720;6.912;2023-08-20T06:36:37;11.82;;;8.75;;
15256;SDS011;7731;50.720;6.912;2023-08-20T06:39:07;10.20;;;7.22;;
15256;SDS011;7731;50.720;6.912;2023-08-20T06:41:38;10.02;;;7.35;;
15256;SDS011;7731;50.720;6.912;2023-08-20T06:44:08;10.75;;;7.55;;
15256;SDS011;7731;50.720;6.912;2023-08-20T06:46:39;13.20;;;7.72;;
15256;SDS011;7731;50.720;6.912;2023-08-20T06:49:13;8.45;;;7.10;;
15256;SDS011;7731;50.720;6.912;2023-08-20T06:51:43;7.55;;;6.78;;
15256;SDS011;7731;50.720;6.912;2023-08-20T06:54:16;7.97;;;7.25;;
15256;SDS011;7731;50.720;6.912;2023-08-20T06:56:47;8.32;;;7.38;;
15256;SDS011;7731;50.720;6.912;2023-08-20T06:59:17;11.27;;;8.55;;
15256;SDS011;7731;50.720;6.912;2023-08-20T07:01:47;9.95;;;6.75;;
15256;SDS011;7731;50.720;6.912;2023-08-20T07:04:22;11.63;;;7.38;;
15256;SDS011;7731;50.720;6.912;2023-08-20T07:06:58;9.45;;;7.22;;
15256;SDS011;7731;50.720;6.912;2023-08-20T07:09:31;9.13;;;7.78;;
15256;SDS011;7731;50.720;6.912;2023-08-20T07:12:01;8.60;;;7.78;;
15256;SDS011;7731;50.720;6.912;2023-08-20T07:14:35;9.95;;;8.15;;
15256;SDS011;7731;50.720;6.912;2023-08-20T07:17:09;10.10;;;8.70;;
15256;SDS011;7731;50.720;6.912;2023-08-20T07:22:34;10.95;;;8.68;;
15256;SDS011;7731;50.720;6.912;2023-08-20T07:25:07;10.32;;;8.38;;
15256;SDS011;7731;50.720;6.912;2023-08-20T07:27:38;12.98;;;9.50;;
15256;SDS011;7731;50.720;6.912;2023-08-20T07:30:10;11.18;;;9.40;;
15256;SDS011;7731;50.720;6.912;2023-08-20T07:32:43;10.98;;;8.98;;
15256;SDS011;7731;50.720;6.912;2023-08-20T07:35:16;12.23;;;9.27;;
15256;SDS011;7731;50.720;6.912;2023-08-20T07:37:52;11.02;;;9.18;;
15256;SDS011;7731;50.720;6.912;2023-08-20T07:40:23;9.75;;;8.75;;
15256;SDS011;7731;50.720;6.912;2023-08-20T07:42:53;11.93;;;10.82;;
15256;SDS011;7731;50.720;6.912;2023-08-20T07:45:24;10.20;;;9.20;;
15256;SDS011;7731;50.720;6.912;2023-08-20T07:47:54;10.90;;;9.90;;
15256;SDS011;7731;50.720;6.912;2023-08-20T07:50:30;10.13;;;9.13;;
15256;SDS011;7731;50.720;6.912;2023-08-20T07:53:00;8.07;;;7.03;;
15256;SDS011;7731;50.720;6.912;2023-08-20T07:55:30;9.95;;;8.77;;
15256;SDS011;7731;50.720;6.912;2023-08-20T07:58:01;11.18;;;9.93;;
15256;SDS011;7731;50.720;6.912;2023-08-20T08:00:34;12.60;;;9.60;;
15256;SDS011;7731;50.720;6.912;2023-08-20T08:03:04;9.65;;;8.15;;
15256;SDS011;7731;50.720;6.912;2023-08-20T08:05:39;11.90;;;10.70;;
15256;SDS011;7731;50.720;6.912;2023-08-20T08:08:09;10.48;;;9.48;;
15256;SDS011;7731;50.720;6.912;2023-08-20T08:10:39;11.27;;;10.05;;
15256;SDS011;7731;50.720;6.912;2023-08-20T08:13:13;12.48;;;11.00;;
15256;SDS011;7731;50.720;6.912;2023-08-20T08:15:48;9.77;;;8.77;;
15256;SDS011;7731;50.720;6.912;2023-08-20T08:18:19;11.18;;;9.98;;
15256;SDS011;7731;50.720;6.912;2023-08-20T08:20:52;8.82;;;8.00;;
15256;SDS011;7731;50.720;6.912;2023-08-20T08:23:25;11.18;;;10.07;;
15256;SDS011;7731;50.720;6.912;2023-08-20T08:25:55;11.63;;;10.18;;
15256;SDS011;7731;50.720;6.912;2023-08-20T08:28:26;11.73;;;10.52;;
15256;SDS011;7731;50.720;6.912;2023-08-20T08:30:56;9.75;;;8.75;;
15256;SDS011;7731;50.720;6.912;2023-08-20T08:33:26;10.65;;;9.57;;
15256;SDS011;7731;50.720;6.912;2023-08-20T08:35:59;10.57;;;9.43;;
15256;SDS011;7731;50.720;6.912;2023-08-20T08:38:30;8.48;;;7.57;;
15256;SDS011;7731;50.720;6.912;2023-08-20T08:41:00;12.30;;;8.98;;
15256;SDS011;7731;50.720;6.912;2023-08-20T08:43:35;9.82;;;7.90;;
15256;SDS011;7731;50.720;6.912;2023-08-20T08:46:09;9.40;;;8.40;;
15256;SDS011;7731;50.720;6.912;2023-08-20T08:48:43;9.52;;;8.35;;
15256;SDS011;7731;50.720;6.912;2023-08-20T08:51:18;9.50;;;8.43;;
15256;SDS011;7731;50.720;6.912;2023-08-20T08:53:59;8.50;;;7.70;;
15256;SDS011;7731;50.720;6.912;2023-08-20T08:56:31;7.95;;;6.60;;
15256;SDS011;7731;50.720;6.912;2023-08-20T08:59:01;7.40;;;6.80;;
15256;SDS011;7731;50.720;6.912;2023-08-20T09:01:37;6.97;;;6.30;;
15256;SDS011;7731;50.720;6.912;2023-08-20T09:04:08;7.75;;;6.88;;
15256;SDS011;7731;50.720;6.912;2023-08-20T09:06:48;7.40;;;6.50;;
15256;SDS011;7731;50.720;6.912;2023-08-20T09:09:21;7.63;;;5.80;;
15256;SDS011;7731;50.720;6.912;2023-08-20T09:11:51;6.03;;;5.38;;
15256;SDS011;7731;50.720;6.912;2023-08-20T09:14:22;6.85;;;5.80;;
15256;SDS011;7731;50.720;6.912;2023-08-20T09:16:58;8.43;;;5.90;;
15256;SDS011;7731;50.720;6.912;2023-08-20T09:19:35;11.02;;;6.00;;
15256;SDS011;7731;50.720;6.912;2023-08-20T09:22:18;6.90;;;6.20;;
15256;SDS011;7731;50.720;6.912;2023-08-20T09:24:52;5.97;;;5.35;;
15256;SDS011;7731;50.720;6.912;2023-08-20T09:27:26;6.93;;;6.32;;
15256;SDS011;7731;50.720;6.912;2023-08-20T09:29:56;7.40;;;6.57;;
15256;SDS011;7731;50.720;6.912;2023-08-20T09:32:27;8.20;;;7.45;;
15256;SDS011;7731;50.720;6.912;2023-08-20T09:35:06;8.02;;;7.07;;
15256;SDS011;7731;50.720;6.912;2023-08-20T09:37:53;9.68;;;7.63;;
15256;SDS011;7731;50.720;6.912;2023-08-20T09:40:30;6.97;;;6.38;;
15256;SDS011;7731;50.720;6.912;2023-08-20T09:43:01;6.60;;;5.90;;
15256;SDS011;7731;50.720;6.912;2023-08-20T09:45:37;7.43;;;6.75;;
15256;SDS011;7731;50.720;6.912;2023-08-20T09:48:13;8.07;;;6.25;;
15256;SDS011;7731;50.720;6.912;2023-08-20T09:50:48;8.23;;;6.25;;
15256;SDS011;7731;50.720;6.912;2023-08-20T09:53:37;6.75;;;5.63;;
15256;SDS011;7731;50.720;6.912;2023-08-20T09:56:21;6.13;;;5.57;;
15256;SDS011;7731;50.720;6.912;2023-08-20T09:58:59;6.55;;;6.05;;
15256;SDS011;7731;50.720;6.912;2023-08-20T10:01:31;6.88;;;6.25;;
15256;SDS011;7731;50.720;6.912;2023-08-20T10:04:02;6.43;;;5.93;;
15256;SDS011;7731;50.720;6.912;2023-08-20T10:06:34;6.60;;;5.97;;
15256;SDS011;7731;50.720;6.912;2023-08-20T10:09:09;6.53;;;5.88;;
15256;SDS011;7731;50.720;6.912;2023-08-20T10:11:40;6.20;;;5.60;;
15256;SDS011;7731;50.720;6.912;2023-08-20T10:14:11;7.78;;;6.80;;
15256;SDS011;7731;50.720;6.912;2023-08-20T10:16:42;7.20;;;6.30;;
15256;SDS011;7731;50.720;6.912;2023-08-20T10:19:17;7.78;;;6.43;;
15256;SDS011;7731;50.720;6.912;2023-08-20T10:21:54;7.22;;;6.60;;
15256;SDS011;7731;50.720;6.912;2023-08-20T10:24:29;8.25;;;7.38;;
15256;SDS011;7731;50.720;6.912;2023-08-20T10:27:11;6.93;;;6.30;;
15256;SDS011;7731;50.720;6.912;2023-08-20T10:29:48;7.82;;;6.65;;
15256;SDS011;7731;50.720;6.912;2023-08-20T10:35:17;6.38;;;5.88;;
15256;SDS011;7731;50.720;6.912;2023-08-20T10:38:04;7.57;;;6.28;;
15256;SDS011;7731;50.720;6.912;2023-08-20T10:40:54;7.10;;;6.50;;
15256;SDS011;7731;50.720;6.912;2023-08-20T10:43:26;6.80;;;6.15;;
15256;SDS011;7731;50.720;6.912;2023-08-20T10:46:07;6.38;;;5.88;;
15256;SDS011;7731;50.720;6.912;2023-08-20T10:48:47;6.13;;;5.53;;
15256;SDS011;7731;50.720;6.912;2023-08-20T10:51:24;6.82;;;6.15;;
15256;SDS011;7731;50.720;6.912;2023-08-20T10:54:03;6.35;;;5.85;;
15256;SDS011;7731;50.720;6.912;2023-08-20T10:56:43;6.20;;;5.70;;
15256;SDS011;7731;50.720;6.912;2023-08-20T10:59:15;6.85;;;5.97;;
15256;SDS011;7731;50.720;6.912;2023-08-20T11:01:50;7.43;;;6.70;;
15256;SDS011;7731;50.720;6.912;2023-08-20T11:04:25;6.78;;;6.18;;
15256;SDS011;7731;50.720;6.912;2023-08-20T11:06:59;6.80;;;6.10;;
15256;SDS011;7731;50.720;6.912;2023-08-20T11:09:31;7.80;;;6.18;;
15256;SDS011;7731;50.720;6.912;2023-08-20T11:12:04;6.60;;;6.00;;
15256;SDS011;7731;50.720;6.912;2023-08-20T11:14:36;6.55;;;5.95;;
15256;SDS011;7731;50.720;6.912;2023-08-20T11:17:06;7.43;;;6.68;;
15256;SDS011;7731;50.720;6.912;2023-08-20T11:19:36;6.63;;;5.90;;
15256;SDS011;7731;50.720;6.912;2023-08-20T11:22:09;7.40;;;6.75;;
15256;SDS011;7731;50.720;6.912;2023-08-20T11:24:42;6.95;;;6.35;;
15256;SDS011;7731;50.720;6.912;2023-08-20T11:27:15;7.38;;;6.70;;
15256;SDS011;7731;50.720;6.912;2023-08-20T11:29:54;6.97;;;6.38;;
15256;SDS011;7731;50.720;6.912;2023-08-20T11:32:24;7.15;;;6.45;;
15256;SDS011;7731;50.720;6.912;2023-08-20T11:34:55;7.90;;;7.20;;
15256;SDS011;7731;50.720;6.912;2023-08-20T11:37:25;6.93;;;6.35;;
15256;SDS011;7731;50.720;6.912;2023-08-20T11:39:57;5.95;;;5.35;;
15256;SDS011;7731;50.720;6.912;2023-08-20T11:42:30;6.65;;;6.10;;
15256;SDS011;7731;50.720;6.912;2023-08-20T11:45:00;7.32;;;6.60;;
15256;SDS011;7731;50.720;6.912;2023-08-20T11:47:38;7.28;;;5.75;;
15256;SDS011;7731;50.720;6.912;2023-08-20T11:50:11;7.75;;;6.22;;
15256;SDS011;7731;50.720;6.912;2023-08-20T11:52:41;6.70;;;6.00;;
15256;SDS011;7731;50.720;6.912;2023-08-20T11:55:12;8.60;;;6.88;;
15256;SDS011;7731;50.720;6.912;2023-08-20T11:57:48;8.57;;;7.85;;
15256;SDS011;7731;50.720;6.912;2023-08-20T12:00:24;7.85;;;7.25;;
15256;SDS011;7731;50.720;6.912;2023-08-20T12:02:57;8.13;;;7.30;;
15256;SDS011;7731;50.720;6.912;2023-08-20T12:05:27;8.45;;;7.75;;
15256;SDS011;7731;50.720;6.912;2023-08-20T12:07:58;7.50;;;6.80;;
15256;SDS011;7731;50.720;6.912;2023-08-20T12:10:32;7.75;;;7.00;;
15256;SDS011;7731;50.720;6.912;2023-08-20T12:13:05;7.90;;;6.18;;
15256;SDS011;7731;50.720;6.912;2023-08-20T12:15:37;8.00;;;7.20;;
15256;SDS011;7731;50.720;6.912;2023-08-20T12:18:11;7.65;;;6.97;;
15256;SDS011;7731;50.720;6.912;2023-08-20T12:20:41;7.57;;;6.88;;
15256;SDS011;7731;50.720;6.912;2023-08-20T12:23:11;7.07;;;6.47;;
15256;SDS011;7731;50.720;6.912;2023-08-20T12:25:42;6.90;;;6.22;;
15256;SDS011;7731;50.720;6.912;2023-08-20T12:28:15;7.32;;;6.70;;
15256;SDS011;7731;50.720;6.912;2023-08-20T12:30:48;7.18;;;6.47;;
15256;SDS011;7731;50.720;6.912;2023-08-20T12:33:18;7.10;;;6.40;;
15256;SDS011;7731;50.720;6.912;2023-08-20T12:35:55;7.45;;;6.72;;
15256;SDS011;7731;50.720;6.912;2023-08-20T12:38:25;8.23;;;6.55;;
15256;SDS011;7731;50.720;6.912;2023-08-20T12:41:00;6.40;;;5.80;;
15256;SDS011;7731;50.720;6.912;2023-08-20T12:43:34;6.40;;;5.80;;
15256;SDS011;7731;50.720;6.912;2023-08-20T12:46:07;7.13;;;6.22;;
15256;SDS011;7731;50.720;6.912;2023-08-20T12:48:41;7.57;;;6.90;;
15256;SDS011;7731;50.720;6.912;2023-08-20T12:51:12;7.43;;;6.50;;
15256;SDS011;7731;50.720;6.912;2023-08-20T12:53:49;7.80;;;7.10;;
15256;SDS011;7731;50.720;6.912;2023-08-20T12:56:22;7.97;;;7.28;;
15256;SDS011;7731;50.720;6.912;2023-08-20T12:58:57;6.65;;;6.15;;
15256;SDS011;7731;50.720;6.912;2023-08-20T13:01:27;7.03;;;6.43;;
15256;SDS011;7731;50.720;6.912;2023-08-20T13:04:01;7.10;;;6.35;;
15256;SDS011;7731;50.720;6.912;2023-08-20T13:06:36;6.82;;;6.22;;
15256;SDS011;7731;50.720;6.912;2023-08-20T13:09:13;6.53;;;5.93;;
15256;SDS011;7731;50.720;6.912;2023-08-20T13:11:53;7.10;;;6.40;;
15256;SDS011;7731;50.720;6.912;2023-08-20T13:14:31;6.88;;;6.28;;
15256;SDS011;7731;50.720;6.912;2023-08-20T13:17:05;6.60;;;6.13;;
15256;SDS011;7731;50.720;6.912;2023-08-20T13:19:37;6.55;;;5.95;;
15256;SDS011;7731;50.720;6.912;2023-08-20T13:22:11;8.23;;;7.43;;
15256;SDS011;7731;50.720;6.912;2023-08-20T13:24:43;8.55;;;7.70;;
15256;SDS011;7731;50.720;6.912;2023-08-20T13:27:18;10.00;;;8.50;;
15256;SDS011;7731;50.720;6.912;2023-08-20T13:29:51;9.65;;;8.68;;
15256;SDS011;7731;50.720;6.912;2023-08-20T13:32:22;9.45;;;8.52;;
15256;SDS011;7731;50.720;6.912;2023-08-20T13:34:52;9.27;;;8.43;;
15256;SDS011;7731;50.720;6.912;2023-08-20T13:37:22;8.75;;;7.95;;
15256;SDS011;7731;50.720;6.912;2023-08-20T13:40:07;9.85;;;9.00;;
15256;SDS011;7731;50.720;6.912;2023-08-20T13:42:38;8.82;;;8.13;;
15256;SDS011;7731;50.720;6.912;2023-08-20T13:45:14;9.13;;;8.23;;
15256;SDS011;7731;50.720;6.912;2023-08-20T13:47:44;9.95;;;8.90;;
15256;SDS011;7731;50.720;6.912;2023-08-20T13:50:18;8.70;;;7.90;;
15256;SDS011;7731;50.720;6.912;2023-08-20T13:52:48;8.25;;;7.45;;
15256;SDS011;7731;50.720;6.912;2023-08-20T13:55:18;8.48;;;7.68;;
15256;SDS011;7731;50.720;6.912;2023-08-20T13:57:49;8.57;;;7.78;;
15256;SDS011;7731;50.720;6.912;2023-08-20T14:00:22;8.68;;;7.88;;
15256;SDS011;7731;50.720;6.912;2023-08-20T14:02:53;8.80;;;7.90;;
15256;SDS011;7731;50.720;6.912;2023-08-20T14:05:26;8.15;;;7.43;;
15256;SDS011;7731;50.720;6.912;2023-08-20T14:07:57;7.40;;;6.70;;
15256;SDS011;7731;50.720;6.912;2023-08-20T14:10:34;8.02;;;7.13;;
15256;SDS011;7731;50.720;6.912;2023-08-20T14:13:06;8.07;;;7.25;;
15256;SDS011;7731;50.720;6.912;2023-08-20T14:15:42;7.07;;;6.35;;
15256;SDS011;7731;50.720;6.912;2023-08-20T14:18:12;7.18;;;6.57;;
15256;SDS011;7731;50.720;6.912;2023-08-20T14:20:43;7.43;;;6.72;;
15256;SDS011;7731;50.720;6.912;2023-08-20T14:23:16;7.50;;;6.78;;
15256;SDS011;7731;50.720;6.912;2023-08-20T14:25:46;8.45;;;6.72;;
15256;SDS011;7731;50.720;6.912;2023-08-20T14:28:20;6.55;;;5.95;;
15256;SDS011;7731;50.720;6.912;2023-08-20T14:30:53;6.70;;;6.10;;
15256;SDS011;7731;50.720;6.912;2023-08-20T14:33:23;7.25;;;6.20;;
15256;SDS011;7731;50.720;6.912;2023-08-20T14:35:54;6.10;;;5.50;;
15256;SDS011;7731;50.720;6.912;2023-08-20T14:38:30;6.78;;;5.47;;
15256;SDS011;7731;50.720;6.912;2023-08-20T14:41:03;6.68;;;6.15;;
15256;SDS011;7731;50.720;6.912;2023-08-20T14:43:33;6.45;;;5.85;;
15256;SDS011;7731;50.720;6.912;2023-08-20T14:46:06;6.70;;;6.10;;
15256;SDS011;7731;50.720;6.912;2023-08-20T14:48:42;6.43;;;5.82;;
15256;SDS011;7731;50.720;6.912;2023-08-20T14:51:36;6.28;;;5.68;;
15256;SDS011;7731;50.720;6.912;2023-08-20T14:54:06;6.78;;;6.18;;
15256;SDS011;7731;50.720;6.912;2023-08-20T14:56:36;6.93;;;6.28;;
15256;SDS011;7731;50.720;6.912;2023-08-20T14:59:07;6.43;;;5.55;;
15256;SDS011;7731;50.720;6.912;2023-08-20T15:01:40;6.63;;;6.07;;
15256;SDS011;7731;50.720;6.912;2023-08-20T15:04:12;6.45;;;5.95;;
15256;SDS011;7731;50.720;6.912;2023-08-20T15:06:43;6.68;;;6.07;;
15256;SDS011;7731;50.720;6.912;2023-08-20T15:09:13;5.68;;;5.18;;
15256;SDS011;7731;50.720;6.912;2023-08-20T15:11:47;6.40;;;5.80;;
15256;SDS011;7731;50.720;6.912;2023-08-20T15:14:18;6.95;;;6.35;;
15256;SDS011;7731;50.720;6.912;2023-08-20T15:16:51;6.75;;;6.05;;
15256;SDS011;7731;50.720;6.912;2023-08-20T15:19:21;6.43;;;5.82;;
15256;SDS011;7731;50.720;6.912;2023-08-20T15:21:51;6.43;;;5.82;;
15256;SDS011;7731;50.720;6.912;2023-08-20T15:24:22;5.90;;;5.40;;
15256;SDS011;7731;50.720;6.912;2023-08-20T15:26:55;6.50;;;5.68;;
15256;SDS011;7731;50.720;6.912;2023-08-20T15:29:30;6.95;;;5.38;;
15256;SDS011;7731;50.720;6.912;2023-08-20T15:32:03;6.60;;;4.85;;
15256;SDS011;7731;50.720;6.912;2023-08-20T15:34:34;6.00;;;5.35;;
15256;SDS011;7731;50.720;6.912;2023-08-20T15:37:04;5.22;;;4.82;;
15256;SDS011;7731;50.720;6.912;2023-08-20T15:39:34;6.82;;;5.05;;
15256;SDS011;7731;50.720;6.912;2023-08-20T15:42:07;5.78;;;5.10;;